Time;durP1;ratioP1;P1;durP2;ratioP2;P2;SDS_P1;SDS_P2;PMS_P1;PMS_P2;Temp;Humidity;BMP_temperature;BMP_pressure;BME280_temperature;BME280_humidity;BME280_pressure;Samples;Min_cycle;Max_cycle;Signal;HPM_P1;HPM_P2
2023/04/11 06:03:44;;;;;;;;;;;;;;;13.30;66.81;97087.91;4241823;27;10397;-62
2023/04/11 06:05:47;;;;;;;;;;;;;;;13.63;66.27;97084.44;4232658;27;5776;-62
2023/04/11 06:07:50;;;;;;;;;;;;;;;13.85;65.50;97088.50;4248398;27;5768;-62
2023/04/11 06:09:53;;;;;;;;;;;;;;;14.07;65.02;97097.06;4238410;27;5838;-62
2023/04/11 06:11:56;;;;;;;;;;;;;;;14.19;64.66;97115.84;4231703;28;5889;-62
2023/04/11 06:13:59;;;;;;;;;;;;;;;14.25;64.71;97112.34;4242649;27;5688;-62
2023/04/11 06:16:02;;;;;;;;;;;;;;;14.32;64.36;97107.84;4247392;27;5697;-62
2023/04/11 06:18:05;;;;;;;;;;;;;;;14.39;64.34;97108.66;4243990;27;5714;-62
2023/04/11 06:20:10;;;;;;;;;;;;;;;14.46;64.16;97101.47;4242373;27;5866;-62
2023/04/11 06:22:13;;;;;;;;;;;;;;;14.55;63.96;97118.84;4246634;27;5687;-62
2023/04/11 06:24:17;;;;;;;;;;;;;;;14.62;63.64;97110.03;4236103;27;5848;-62
2023/04/11 06:26:23;;;;;;;;;;;;;;;14.66;63.86;97113.91;4238204;27;5780;-62
2023/04/11 06:28:25;;;;;;;;;;;;;;;14.66;63.59;97105.91;4244204;27;5697;-62
2023/04/11 06:30:28;;;;;;;;;;;;;;;14.71;63.46;97103.44;4246508;27;5947;-62
2023/04/11 06:32:31;;;;;;;;;;;;;;;14.74;63.50;97093.19;4247538;27;5720;-62
2023/04/11 06:34:36;;;;;;;;;;;;;;;14.78;63.34;97088.25;4243802;27;5693;-62
2023/04/11 06:36:41;;;;;;;;;;;;;;;14.81;63.22;97077.19;4244137;27;5783;-62
2023/04/11 06:38:45;;;;;;;;;;;;;;;14.85;63.27;97094.38;4235862;27;6617;-62
2023/04/11 06:40:50;;;;;;;;;;;;;;;14.91;63.20;97095.34;4238155;27;5742;-62
2023/04/11 06:42:54;;;;;;;;;;;;;;;14.90;62.92;97101.72;4232445;27;5872;-62
2023/04/11 06:44:56;;;;;;;;;;;;;;;14.92;63.15;97102.31;4243773;27;5697;-62
2023/04/11 06:46:59;;;;;;;;;;;;;;;14.95;63.08;97100.06;4241291;27;5844;-63
2023/04/11 06:49:06;;;;;;;;;;;;;;;14.98;63.10;97096.16;4238382;27;5772;-62
2023/04/11 06:51:09;;;;;;;;;;;;;;;14.99;62.84;97092.44;4245261;27;5708;-62
2023/04/11 06:53:14;;;;;;;;;;;;;;;15.03;62.74;97101.63;4223081;28;5850;-61
2023/04/11 06:55:17;;;;;;;;;;;;;;;15.04;63.05;97104.06;4243504;27;5791;-62
2023/04/11 06:57:20;;;;;;;;;;;;;;;15.05;62.95;97110.22;4237913;27;5700;-61
2023/04/11 06:59:23;;;;;;;;;;;;;;;15.05;62.64;97118.22;4245141;27;5715;-61
2023/04/11 07:01:34;;;;;;;;;;;;;;;15.05;62.75;97124.34;4228834;28;5878;-63
2023/04/11 07:03:37;;;;;;;;;;;;;;;15.06;62.98;97126.00;4238806;27;5772;-63
2023/04/11 07:05:40;;;;;;;;;;;;;;;15.05;63.00;97126.19;4220859;28;5780;-62
2023/04/11 07:07:43;;;;;;;;;;;;;;;15.01;62.85;97128.47;4233802;28;5791;-67
2023/04/11 07:09:47;;;;;;;;;;;;;;;14.98;63.00;97120.09;4220842;28;5779;-65
2023/04/11 07:11:50;;;;;;;;;;;;;;;14.98;63.04;97125.44;4222447;28;5850;-65
2023/04/11 07:13:53;;;;;;;;;;;;;;;14.99;63.07;97116.41;4233308;28;5905;-65
2023/04/11 07:15:56;;;;;;;;;;;;;;;14.98;62.71;97112.13;4224843;28;7720;-65
2023/04/11 07:17:59;;;;;;;;;;;;;;;15.03;62.78;97121.09;4218191;28;5837;-65
2023/04/11 07:20:04;;;;;;;;;;;;;;;15.04;62.97;97119.25;4224061;28;5811;-65
2023/04/11 07:22:07;;;;;;;;;;;;;;;15.06;62.62;97115.34;4228507;28;5725;-65
2023/04/11 07:24:12;;;;;;;;;;;;;;;15.05;62.46;97121.69;4226928;28;5092;-65
2023/04/11 07:26:16;;;;;;;;;;;;;;;15.06;62.67;97123.34;4224264;28;5816;-65
2023/04/11 07:28:20;;;;;;;;;;;;;;;15.08;62.80;97137.25;4220135;28;5812;-65
2023/04/11 07:30:23;;;;;;;;;;;;;;;15.10;62.65;97137.03;4222950;28;5789;-65
2023/04/11 07:32:26;;;;;;;;;;;;;;;15.13;62.47;97133.94;4223795;28;5708;-66
2023/04/11 07:34:28;;;;;;;;;;;;;;;15.14;62.63;97133.72;4225986;28;5828;-66
2023/04/11 07:36:33;;;;;;;;;;;;;;;15.17;62.29;97124.47;4234610;28;5881;-66
2023/04/11 07:38:36;;;;;;;;;;;;;;;15.19;62.32;97121.63;4226439;28;5722;-66
2023/04/11 07:40:39;;;;;;;;;;;;;;;15.20;62.49;97123.25;4226260;28;5706;-66
2023/04/11 07:42:45;;;;;;;;;;;;;;;15.22;62.28;97126.53;4217868;28;6672;-66
2023/04/11 07:44:49;;;;;;;;;;;;;;;15.24;62.48;97119.13;4226251;28;5722;-66
2023/04/11 07:46:51;;;;;;;;;;;;;;;15.22;62.18;97115.88;4224823;28;5808;-66
2023/04/11 07:48:55;;;;;;;;;;;;;;;15.22;62.24;97113.22;4219331;28;6323;-66
2023/04/11 07:50:57;;;;;;;;;;;;;;;15.20;62.30;97113.44;4231821;28;5763;-66
2023/04/11 07:53:01;;;;;;;;;;;;;;;15.18;62.31;97109.34;4219130;28;6666;-66
2023/04/11 07:55:04;;;;;;;;;;;;;;;15.20;62.41;97109.94;4223000;28;5733;-66
2023/04/11 07:57:07;;;;;;;;;;;;;;;15.20;62.33;97112.63;4224136;28;5705;-66
2023/04/11 07:59:12;;;;;;;;;;;;;;;15.21;62.38;97114.25;4222575;28;5742;-66
2023/04/11 08:01:22;;;;;;;;;;;;;;;15.21;62.40;97112.41;4222572;28;5760;-66
2023/04/11 08:03:25;;;;;;;;;;;;;;;15.21;62.24;97108.91;4230888;28;6403;-66
2023/04/11 08:05:29;;;;;;;;;;;;;;;15.22;62.29;97102.56;4218892;28;5718;-66
2023/04/11 08:07:32;;;;;;;;;;;;;;;15.26;62.05;97101.09;4226149;28;5809;-66
2023/04/11 08:09:34;;;;;;;;;;;;;;;15.29;62.22;97098.81;4225534;28;5823;-64
2023/04/11 08:11:38;;;;;;;;;;;;;;;15.31;61.79;97098.59;4231098;28;5705;-65
2023/04/11 08:13:41;;;;;;;;;;;;;;;15.33;61.84;97097.34;4218465;28;5709;-65
2023/04/11 08:15:45;;;;;;;;;;;;;;;15.32;62.15;97094.91;4222237;28;5118;-65
2023/04/11 08:17:50;;;;;;;;;;;;;;;15.30;61.91;97105.78;4224508;28;5722;-65
2023/04/11 08:19:53;;;;;;;;;;;;;;;15.31;61.74;97109.25;4224416;28;5906;-65
2023/04/11 08:21:55;;;;;;;;;;;;;;;15.30;61.81;97112.97;4235393;28;5697;-65
2023/04/11 08:23:58;;;;;;;;;;;;;;;15.24;61.63;97101.31;4235249;28;5692;-67
2023/04/11 08:26:01;;;;;;;;;;;;;;;15.24;61.80;97097.81;4235615;28;5748;-65
2023/04/11 08:28:04;;;;;;;;;;;;;;;15.28;61.95;97107.00;4235283;28;5802;-65
2023/04/11 08:30:08;;;;;;;;;;;;;;;15.34;61.63;97106.97;4231478;28;5782;-65
2023/04/11 08:32:13;;;;;;;;;;;;;;;15.41;61.68;97101.63;4218685;28;5754;-66
2023/04/11 08:34:15;;;;;;;;;;;;;;;15.45;61.69;97105.47;4231507;28;5685;-66
2023/04/11 08:36:18;;;;;;;;;;;;;;;15.50;61.55;97110.94;4230022;28;5801;-65
2023/04/11 08:38:21;;;;;;;;;;;;;;;15.52;61.35;97116.91;4226451;28;5830;-66
2023/04/11 08:40:24;;;;;;;;;;;;;;;15.54;61.38;97119.34;4226541;28;5710;-65
2023/04/11 08:42:30;;;;;;;;;;;;;;;15.51;61.36;97125.91;4233258;28;5713;-65
2023/04/11 08:44:33;;;;;;;;;;;;;;;15.52;61.40;97134.75;4226427;28;5709;-65
2023/04/11 08:46:41;;;;;;;;;;;;;;;15.51;61.39;97135.75;4218574;28;5816;-65
2023/04/11 08:48:45;;;;;;;;;;;;;;;15.48;61.51;97134.34;4218163;28;5750;-66
2023/04/11 08:50:48;;;;;;;;;;;;;;;15.47;61.48;97135.38;4209359;28;6322;-65
2023/04/11 08:52:53;;;;;;;;;;;;;;;15.51;61.30;97147.22;4235051;28;5689;-66
2023/04/11 08:54:55;;;;;;;;;;;;;;;15.55;61.26;97137.78;4234814;28;5772;-66
2023/04/11 08:56:58;;;;;;;;;;;;;;;15.61;61.17;97128.13;4224233;28;5099;-66
2023/04/11 08:59:02;;;;;;;;;;;;;;;15.60;61.27;97135.31;4218106;28;5872;-66
2023/04/11 09:01:27;;;;;;;;;;;;;;;15.65;61.02;97126.69;4218004;28;5714;-66
2023/04/11 09:03:51;;;;;;;;;;;;;;;15.67;61.04;97136.09;4217878;28;5836;-66
2023/04/11 09:05:56;;;;;;;;;;;;;;;15.73;60.93;97129.06;4218038;28;5722;-66
2023/04/11 09:07:59;;;;;;;;;;;;;;;15.77;60.91;97124.13;4217952;28;5730;-66
2023/04/11 09:10:18;;;;;;;;;;;;;;;15.77;60.82;97129.44;4217978;28;5777;-66
2023/04/11 09:12:28;;;;;;;;;;;;;;;15.79;60.88;97130.03;4223551;28;5864;-66
2023/04/11 09:14:32;;;;;;;;;;;;;;;15.79;60.81;97124.72;4234813;28;6469;-66
2023/04/11 09:16:36;;;;;;;;;;;;;;;15.83;60.60;97123.22;4234827;28;5688;-66
2023/04/11 09:18:40;;;;;;;;;;;;;;;15.86;60.42;97120.97;4234632;28;5693;-66
2023/04/11 09:20:44;;;;;;;;;;;;;;;15.88;60.27;97128.75;4234752;28;5701;-66
2023/04/11 09:22:49;;;;;;;;;;;;;;;15.89;60.27;97122.38;4234509;28;5074;-66
2023/04/11 09:25:02;;;;;;;;;;;;;;;15.92;60.28;97124.59;4234614;28;5693;-66
2023/04/11 09:27:10;;;;;;;;;;;;;;;15.95;59.93;97116.16;4234449;28;5697;-66
2023/04/11 09:29:34;;;;;;;;;;;;;;;15.98;60.08;97129.88;4221582;28;5726;-66
2023/04/11 09:31:42;;;;;;;;;;;;;;;16.02;59.79;97132.91;4217797;28;5865;-66
2023/04/11 09:33:53;;;;;;;;;;;;;;;16.06;59.56;97133.28;4217613;28;5726;-66
2023/04/11 09:35:58;;;;;;;;;;;;;;;16.05;59.51;97135.13;4217628;28;5714;-66
2023/04/11 09:38:03;;;;;;;;;;;;;;;16.05;59.66;97143.13;4217536;28;5876;-66
2023/04/11 09:40:08;;;;;;;;;;;;;;;16.05;59.56;97142.31;4217453;28;5746;-66
2023/04/11 09:42:24;;;;;;;;;;;;;;;16.05;59.31;97132.47;4217643;28;5721;-66
2023/04/11 09:44:37;;;;;;;;;;;;;;;16.06;59.41;97117.28;4223979;28;5677;-66
2023/04/11 09:46:56;;;;;;;;;;;;;;;16.07;59.11;97130.41;4234502;28;5680;-66
2023/04/11 09:49:00;;;;;;;;;;;;;;;16.04;59.11;97124.69;4234589;28;5705;-66
2023/04/11 09:51:06;;;;;;;;;;;;;;;16.00;59.17;97119.00;4234391;28;5708;-65
2023/04/11 09:53:10;;;;;;;;;;;;;;;15.99;59.14;97120.03;4234135;28;5811;-67
2023/04/11 09:55:15;;;;;;;;;;;;;;;16.01;59.02;97116.09;4234425;28;5693;-67
2023/04/11 09:57:19;;;;;;;;;;;;;;;16.02;59.04;97111.59;4234485;28;5783;-66
2023/04/11 09:59:23;;;;;;;;;;;;;;;16.05;58.92;97107.66;4234322;28;6466;-66
2023/04/11 10:01:26;;;;;;;;;;;;;;;16.11;58.86;97117.47;4234470;28;5735;-65
2023/04/11 10:03:33;;;;;;;;;;;;;;;16.17;58.43;97113.91;4234201;28;6505;-66
2023/04/11 10:05:38;;;;;;;;;;;;;;;16.21;58.55;97109.78;4234607;28;5701;-66
2023/04/11 10:07:52;;;;;;;;;;;;;;;16.26;58.50;97108.06;4234528;28;5673;-67
2023/04/11 10:09:55;;;;;;;;;;;;;;;16.35;58.32;97113.09;4234166;28;5796;-66
2023/04/11 10:11:59;;;;;;;;;;;;;;;16.39;58.29;97109.75;4234334;28;6799;-66
2023/04/11 10:14:02;;;;;;;;;;;;;;;16.44;58.20;97109.13;4234072;28;5696;-66
2023/04/11 10:16:07;;;;;;;;;;;;;;;16.48;58.02;97108.44;4230786;28;5706;-66
2023/04/11 10:18:12;;;;;;;;;;;;;;;16.53;58.01;97108.56;4217436;28;5718;-66
2023/04/11 10:20:42;;;;;;;;;;;;;;;16.53;57.63;97103.22;4217322;28;5722;-66
2023/04/11 10:23:02;;;;;;;;;;;;;;;16.52;57.69;97100.78;4217154;28;5710;-64
2023/04/11 10:25:17;;;;;;;;;;;;;;;16.50;57.45;97097.53;4217265;28;5718;-65
2023/04/11 10:27:52;;;;;;;;;;;;;;;16.44;57.63;97093.91;4217263;28;6307;-65
2023/04/11 10:29:55;;;;;;;;;;;;;;;16.41;57.38;97089.00;4216731;28;5718;-65
2023/04/11 10:32:10;;;;;;;;;;;;;;;16.38;57.41;97088.66;4217071;28;5902;-65
2023/04/11 10:34:14;;;;;;;;;;;;;;;16.32;57.23;97087.69;4217136;28;5713;-65
2023/04/11 10:36:17;;;;;;;;;;;;;;;16.29;57.29;97086.25;4217084;28;5722;-65
2023/04/11 10:38:47;;;;;;;;;;;;;;;16.28;57.28;97097.97;4217257;28;5714;-65
2023/04/11 10:41:19;;;;;;;;;;;;;;;16.23;57.09;97097.84;4220444;28;5718;-65
2023/04/11 10:43:22;;;;;;;;;;;;;;;16.20;57.21;97090.28;4220345;28;5798;-65
2023/04/11 10:45:26;;;;;;;;;;;;;;;16.19;57.01;97096.63;4220223;28;5726;-65
2023/04/11 10:47:29;;;;;;;;;;;;;;;16.16;57.19;97090.94;4220316;28;5736;-65
2023/04/11 10:49:36;;;;;;;;;;;;;;;16.11;57.02;97091.59;4235650;28;7732;-66
2023/04/11 10:51:39;;;;;;;;;;;;;;;16.07;56.92;97085.06;4236824;28;5700;-65
2023/04/11 10:53:42;;;;;;;;;;;;;;;16.07;56.93;97077.06;4236809;28;6992;-66
2023/04/11 10:55:49;;;;;;;;;;;;;;;16.06;56.91;97080.75;4236949;28;5693;-66
2023/04/11 10:58:04;;;;;;;;;;;;;;;16.06;56.77;97078.09;4237000;28;5696;-65
2023/04/11 11:00:12;;;;;;;;;;;;;;;16.05;56.58;97079.13;4236027;28;6101;-65
2023/04/11 11:02:18;;;;;;;;;;;;;;;16.07;56.55;97079.72;4232937;28;5819;-65
2023/04/11 11:04:30;;;;;;;;;;;;;;;16.07;56.33;97076.25;4229950;28;5806;-65
2023/04/11 11:06:34;;;;;;;;;;;;;;;16.09;56.39;97069.69;4225200;28;5853;-65
2023/04/11 11:08:48;;;;;;;;;;;;;;;16.11;56.46;97072.94;4222117;28;5710;-65
2023/04/11 11:10:53;;;;;;;;;;;;;;;16.18;56.17;97088.84;4218527;28;7023;-66
2023/04/11 11:12:57;;;;;;;;;;;;;;;16.19;56.03;97087.81;4235126;28;5803;-67
2023/04/11 11:15:12;;;;;;;;;;;;;;;16.17;55.90;97087.22;4232370;28;5864;-66
2023/04/11 11:17:16;;;;;;;;;;;;;;;16.11;55.85;97080.94;4231754;28;5800;-66
2023/04/11 11:19:19;;;;;;;;;;;;;;;16.12;55.85;97079.91;4219182;28;5817;-66
2023/04/11 11:21:26;;;;;;;;;;;;;;;16.14;55.77;97080.47;4225288;28;5773;-66
2023/04/11 11:23:31;;;;;;;;;;;;;;;16.13;55.67;97073.53;4228298;28;5883;-65
2023/04/11 11:25:34;;;;;;;;;;;;;;;16.13;55.81;97080.72;4218567;28;5907;-62
2023/04/11 11:27:38;;;;;;;;;;;;;;;16.11;55.66;97082.78;4223886;28;5772;-60
2023/04/11 11:29:41;;;;;;;;;;;;;;;16.11;55.60;97083.59;4224254;28;5797;-60
2023/04/11 11:31:46;;;;;;;;;;;;;;;16.15;55.63;97083.97;4226704;28;5900;-60
2023/04/11 11:33:49;;;;;;;;;;;;;;;16.13;55.41;97080.72;4226722;28;5795;-60
2023/04/11 11:35:55;;;;;;;;;;;;;;;16.10;55.63;97081.97;4221623;28;5653;-60
2023/04/11 11:37:58;;;;;;;;;;;;;;;16.12;55.33;97085.22;4219817;28;5726;-60
2023/04/11 11:40:05;;;;;;;;;;;;;;;16.14;55.29;97085.81;4226047;28;5867;-60
2023/04/11 11:42:08;;;;;;;;;;;;;;;16.13;55.35;97081.53;4222375;28;5698;-60
2023/04/11 11:44:22;;;;;;;;;;;;;;;16.14;55.43;97071.66;4217572;28;5722;-59
2023/04/11 11:46:28;;;;;;;;;;;;;;;16.12;55.41;97081.75;4221651;28;5949;-60
2023/04/11 11:48:31;;;;;;;;;;;;;;;16.08;55.14;97086.69;4225934;28;5704;-60
2023/04/11 11:50:34;;;;;;;;;;;;;;;16.09;55.41;97090.19;4226803;28;5858;-60
2023/04/11 11:52:39;;;;;;;;;;;;;;;16.11;55.20;97096.13;4226539;28;7237;-60
2023/04/11 11:54:44;;;;;;;;;;;;;;;16.11;55.20;97094.28;4223712;28;5696;-60
2023/04/11 11:56:50;;;;;;;;;;;;;;;16.09;54.81;97090.19;4217046;28;7704;-63
2023/04/11 11:58:53;;;;;;;;;;;;;;;16.06;55.26;97083.44;4221002;28;5885;-60
2023/04/11 12:00:57;;;;;;;;;;;;;;;16.09;55.15;97075.00;4222913;28;6425;-60
2023/04/11 12:03:02;;;;;;;;;;;;;;;16.10;54.94;97070.50;4224839;28;9589;-60
2023/04/11 12:05:07;;;;;;;;;;;;;;;16.10;55.13;97062.50;4221985;28;5834;-60
2023/04/11 12:07:10;;;;;;;;;;;;;;;16.15;55.10;97068.78;4216949;28;5825;-60
2023/04/11 12:09:13;;;;;;;;;;;;;;;16.19;54.80;97063.81;4219926;28;5753;-60
2023/04/11 12:11:17;;;;;;;;;;;;;;;16.21;54.70;97057.22;4225712;28;5748;-60
2023/04/11 12:13:22;;;;;;;;;;;;;;;16.19;54.84;97064.63;4221377;28;5829;-60
2023/04/11 12:15:25;;;;;;;;;;;;;;;16.17;54.49;97066.69;4220003;28;5805;-60
2023/04/11 12:17:34;;;;;;;;;;;;;;;16.19;54.70;97077.13;4207574;28;5820;-60
2023/04/11 12:19:42;;;;;;;;;;;;;;;16.19;54.46;97072.63;4224933;28;5700;-60
2023/04/11 12:21:44;;;;;;;;;;;;;;;16.15;54.54;97076.78;4233397;28;5780;-60
2023/04/11 12:23:47;;;;;;;;;;;;;;;16.11;54.42;97062.25;4223112;28;5884;-60
2023/04/11 12:25:50;;;;;;;;;;;;;;;16.07;54.47;97074.38;4222501;28;5804;-66
2023/04/11 12:27:53;;;;;;;;;;;;;;;16.02;54.35;97071.59;4224483;28;5781;-67
2023/04/11 12:29:56;;;;;;;;;;;;;;;15.98;54.44;97073.06;4223209;28;5715;-65
2023/04/11 12:31:59;;;;;;;;;;;;;;;15.97;54.29;97068.78;4220487;28;5700;-64
2023/04/11 12:34:03;;;;;;;;;;;;;;;15.94;54.20;97078.00;4217351;28;5947;-64
2023/04/11 12:36:07;;;;;;;;;;;;;;;15.92;54.25;97079.28;4224993;28;5734;-63
2023/04/11 12:38:10;;;;;;;;;;;;;;;15.88;54.36;97062.09;4219818;28;5726;-63
2023/04/11 12:40:18;;;;;;;;;;;;;;;15.87;54.32;97060.47;4224421;28;5902;-62
2023/04/11 12:42:21;;;;;;;;;;;;;;;15.91;54.25;97061.66;4224408;28;5714;-63
2023/04/11 12:44:29;;;;;;;;;;;;;;;15.94;54.22;97069.19;4219271;28;5844;-62
2023/04/11 12:46:32;;;;;;;;;;;;;;;15.96;54.16;97080.44;4224976;28;5820;-62
2023/04/11 12:48:35;;;;;;;;;;;;;;;15.93;53.79;97072.91;4224832;28;5903;-63
2023/04/11 12:50:39;;;;;;;;;;;;;;;15.90;54.08;97074.16;4216977;28;5801;-63
2023/04/11 12:52:42;;;;;;;;;;;;;;;15.89;53.97;97067.19;4220310;28;5702;-63
2023/04/11 12:54:45;;;;;;;;;;;;;;;15.91;54.17;97058.97;4228209;28;5756;-63
2023/04/11 12:56:48;;;;;;;;;;;;;;;15.94;53.93;97064.69;4223967;28;5730;-63
2023/04/11 12:58:51;;;;;;;;;;;;;;;15.98;53.91;97055.22;4230363;28;6646;-63
2023/04/11 13:00:53;;;;;;;;;;;;;;;15.99;53.72;97059.50;4216500;28;5792;-63
2023/04/11 13:02:57;;;;;;;;;;;;;;;15.96;53.79;97062.59;4227161;28;5783;-63
2023/04/11 13:05:05;;;;;;;;;;;;;;;15.98;53.88;97062.41;4224623;28;5906;-63
2023/04/11 13:07:09;;;;;;;;;;;;;;;16.02;53.79;97055.59;4229701;28;5941;-63
2023/04/11 13:09:14;;;;;;;;;;;;;;;16.10;53.74;97054.50;4222956;28;9062;-63
2023/04/11 13:11:17;;;;;;;;;;;;;;;16.21;53.53;97056.41;4219795;28;5813;-64
2023/04/11 13:13:20;;;;;;;;;;;;;;;16.28;53.38;97044.63;4216043;28;5804;-64
2023/04/11 13:15:23;;;;;;;;;;;;;;;16.35;53.38;97036.56;4218166;28;5722;-64
2023/04/11 13:17:26;;;;;;;;;;;;;;;16.39;53.26;97042.25;4222532;28;5772;-63
2023/04/11 13:19:29;;;;;;;;;;;;;;;16.39;53.23;97043.06;4218096;28;5710;-63
2023/04/11 13:21:32;;;;;;;;;;;;;;;16.40;53.43;97034.00;4215987;28;5746;-65
2023/04/11 13:23:36;;;;;;;;;;;;;;;16.43;53.44;97038.13;4216022;28;5812;-63
2023/04/11 13:25:39;;;;;;;;;;;;;;;16.44;53.17;97034.41;4216364;28;6399;-63
2023/04/11 13:27:42;;;;;;;;;;;;;;;16.44;53.24;97026.41;4215987;28;5846;-63
2023/04/11 13:29:45;;;;;;;;;;;;;;;16.42;53.35;97028.44;4215782;28;6661;-63
2023/04/11 13:31:48;;;;;;;;;;;;;;;16.42;53.30;97020.44;4216006;28;5726;-63
2023/04/11 13:33:51;;;;;;;;;;;;;;;16.44;53.28;97019.19;4216036;28;6624;-65
2023/04/11 13:35:53;;;;;;;;;;;;;;;16.49;53.46;97027.34;4217828;28;7300;-63
2023/04/11 13:37:56;;;;;;;;;;;;;;;16.53;53.26;97023.16;4222020;28;5801;-63
2023/04/11 13:40:00;;;;;;;;;;;;;;;16.53;53.18;97017.84;4215942;28;5808;-63
2023/04/11 13:42:03;;;;;;;;;;;;;;;16.53;53.18;97015.16;4224487;28;6511;-62
2023/04/11 13:44:06;;;;;;;;;;;;;;;16.57;53.17;97021.69;4215726;28;5907;-63
2023/04/11 13:46:10;;;;;;;;;;;;;;;16.62;53.20;97017.53;4215958;28;5714;-63
2023/04/11 13:48:13;;;;;;;;;;;;;;;16.64;53.06;97005.56;4216055;28;6630;-63
2023/04/11 13:50:16;;;;;;;;;;;;;;;16.66;52.86;97005.38;4215724;28;5998;-62
2023/04/11 13:52:20;;;;;;;;;;;;;;;16.61;53.02;97000.69;4229598;28;7410;-62
2023/04/11 13:54:23;;;;;;;;;;;;;;;16.65;52.97;97007.22;4221786;28;5799;-62
2023/04/11 13:56:29;;;;;;;;;;;;;;;16.67;52.98;97004.34;4225977;28;5865;-63
2023/04/11 13:58:33;;;;;;;;;;;;;;;16.67;52.73;97002.47;4215869;28;5863;-62
2023/04/11 14:00:35;;;;;;;;;;;;;;;16.67;52.87;97007.81;4214844;28;5828;-62
2023/04/11 14:02:39;;;;;;;;;;;;;;;16.69;52.86;96995.09;4215502;28;5821;-61
2023/04/11 14:04:43;;;;;;;;;;;;;;;16.70;53.01;96995.91;4220028;28;5722;-61
2023/04/11 14:06:45;;;;;;;;;;;;;;;16.71;52.93;96995.66;4223862;28;5696;-62
2023/04/11 14:08:48;;;;;;;;;;;;;;;16.69;52.90;96992.41;4215181;28;5816;-61
2023/04/11 14:10:52;;;;;;;;;;;;;;;16.66;52.65;96981.34;4215731;28;5813;-63
2023/04/11 14:12:56;;;;;;;;;;;;;;;16.68;52.65;96985.44;4215684;28;5710;-62
2023/04/11 14:14:59;;;;;;;;;;;;;;;16.68;52.57;96988.13;4231200;27;5840;-61
2023/04/11 14:17:02;;;;;;;;;;;;;;;16.68;52.75;96987.31;4229330;27;5789;-63
2023/04/11 14:19:06;;;;;;;;;;;;;;;16.67;52.48;96991.81;4225779;28;5824;-61
2023/04/11 14:21:08;;;;;;;;;;;;;;;16.59;52.56;96992.09;4227627;27;5722;-62
2023/04/11 14:23:12;;;;;;;;;;;;;;;16.52;52.52;96989.53;4229240;28;5710;-61
2023/04/11 14:25:16;;;;;;;;;;;;;;;16.44;52.52;96986.38;4227128;27;5883;-62
2023/04/11 14:27:19;;;;;;;;;;;;;;;16.44;52.61;96989.03;4226522;27;5726;-62
2023/04/11 14:29:23;;;;;;;;;;;;;;;16.42;52.83;96985.75;4228318;27;5883;-62
2023/04/11 14:31:27;;;;;;;;;;;;;;;16.36;52.68;96979.47;4224696;27;5923;-62
2023/04/11 14:33:30;;;;;;;;;;;;;;;16.31;52.99;96971.34;4228335;27;5796;-62
2023/04/11 14:35:33;;;;;;;;;;;;;;;16.32;52.70;96972.16;4230318;27;5134;-62
2023/04/11 14:37:36;;;;;;;;;;;;;;;16.36;52.63;96970.66;4223608;27;5696;-62
2023/04/11 14:39:39;;;;;;;;;;;;;;;16.35;52.60;96967.19;4224904;27;5115;-62
2023/04/11 14:41:42;;;;;;;;;;;;;;;16.36;52.55;96971.47;4227588;27;5950;-62
2023/04/11 14:43:45;;;;;;;;;;;;;;;16.39;52.32;96970.22;4221127;28;5714;-62
2023/04/11 14:45:49;;;;;;;;;;;;;;;16.42;52.39;96967.06;4223858;27;6760;-62
2023/04/11 14:47:52;;;;;;;;;;;;;;;16.44;52.26;96962.34;4226710;27;5713;-61
2023/04/11 14:49:56;;;;;;;;;;;;;;;16.42;52.35;96954.59;4229735;27;5819;-61
2023/04/11 14:52:00;;;;;;;;;;;;;;;16.40;52.23;96950.50;4227820;27;6070;-61
2023/04/11 14:54:02;;;;;;;;;;;;;;;16.39;52.38;96951.53;4227358;27;5810;-61
2023/04/11 14:56:06;;;;;;;;;;;;;;;16.41;52.28;96952.13;4234406;27;5819;-61
2023/04/11 14:58:09;;;;;;;;;;;;;;;16.45;52.44;96953.31;4228577;27;5813;-62
2023/04/11 15:00:17;;;;;;;;;;;;;;;16.43;52.50;96948.19;4224631;28;5876;-61
2023/04/11 15:02:22;;;;;;;;;;;;;;;16.49;52.37;96949.13;4230604;27;5787;-61
2023/04/11 15:04:25;;;;;;;;;;;;;;;16.53;52.24;96934.28;4228294;27;5846;-62
2023/04/11 15:06:29;;;;;;;;;;;;;;;16.57;52.06;96938.97;4222358;27;5812;-62
2023/04/11 15:08:32;;;;;;;;;;;;;;;16.59;52.09;96936.06;4226893;27;5792;-63
2023/04/11 15:10:35;;;;;;;;;;;;;;;16.61;52.20;96936.66;4226291;28;5825;-62
2023/04/11 15:12:38;;;;;;;;;;;;;;;16.66;52.12;96934.13;4228664;27;5772;-61
2023/04/11 15:14:41;;;;;;;;;;;;;;;16.64;51.97;96930.03;4226077;28;6385;-63
2023/04/11 15:16:45;;;;;;;;;;;;;;;16.64;51.93;96938.03;4223316;27;7585;-62
2023/04/11 15:18:50;;;;;;;;;;;;;;;16.63;51.98;96926.53;4223835;28;5719;-62
2023/04/11 15:20:54;;;;;;;;;;;;;;;16.63;52.12;96925.72;4210684;28;5888;-62
2023/04/11 15:22:57;;;;;;;;;;;;;;;16.63;51.93;96918.53;4223047;27;5899;-62
2023/04/11 15:25:00;;;;;;;;;;;;;;;16.60;51.81;96916.34;4233472;27;5864;-62
2023/04/11 15:27:03;;;;;;;;;;;;;;;16.59;51.95;96917.38;4231076;27;5704;-62
2023/04/11 15:29:13;;;;;;;;;;;;;;;16.61;51.83;96920.63;4226039;27;5933;-62
2023/04/11 15:31:25;;;;;;;;;;;;;;;16.63;51.70;96925.72;4228046;27;5696;-63
2023/04/11 15:33:30;;;;;;;;;;;;;;;16.63;51.66;96915.88;4226933;27;6205;-62
2023/04/11 15:35:34;;;;;;;;;;;;;;;16.65;51.49;96913.81;4225655;27;5870;-62
2023/04/11 15:37:37;;;;;;;;;;;;;;;16.64;51.67;96906.81;4226976;27;5756;-62
2023/04/11 15:39:40;;;;;;;;;;;;;;;16.68;51.47;96892.03;4223053;28;5722;-62
2023/04/11 15:41:43;;;;;;;;;;;;;;;16.72;51.28;96903.03;4230677;27;5704;-62
2023/04/11 15:43:45;;;;;;;;;;;;;;;16.73;51.48;96905.47;4227618;27;5871;-62
2023/04/11 15:45:48;;;;;;;;;;;;;;;16.75;51.28;96899.91;4224625;27;6410;-62
2023/04/11 15:47:51;;;;;;;;;;;;;;;16.75;51.16;96903.41;4222525;28;5786;-62
2023/04/11 15:49:55;;;;;;;;;;;;;;;16.76;51.06;96898.88;4221518;27;8740;-62
2023/04/11 15:51:59;;;;;;;;;;;;;;;16.77;51.02;96889.84;4223175;27;6762;-63
2023/04/11 15:54:06;;;;;;;;;;;;;;;16.80;50.82;96897.38;4227226;27;5871;-62
2023/04/11 15:56:09;;;;;;;;;;;;;;;16.80;50.71;96887.50;4227959;27;5784;-62
2023/04/11 15:58:12;;;;;;;;;;;;;;;16.83;50.92;96883.56;4225591;27;5819;-62
2023/04/11 16:00:16;;;;;;;;;;;;;;;16.83;50.71;96879.03;4220261;27;5736;-62
2023/04/11 16:02:19;;;;;;;;;;;;;;;16.84;50.71;96888.69;4224520;27;5827;-62
2023/04/11 16:04:22;;;;;;;;;;;;;;;16.84;50.59;96880.66;4229524;28;5831;-62
2023/04/11 16:06:26;;;;;;;;;;;;;;;16.85;50.66;96874.28;4225130;27;5154;-62
2023/04/11 16:08:30;;;;;;;;;;;;;;;16.82;50.39;96874.75;4225113;27;5855;-62
2023/04/11 16:10:33;;;;;;;;;;;;;;;16.81;50.52;96864.31;4224304;27;5789;-62
2023/04/11 16:12:37;;;;;;;;;;;;;;;16.80;50.60;96876.03;4228304;27;5752;-62
2023/04/11 16:14:40;;;;;;;;;;;;;;;16.79;50.40;96871.72;4227787;27;5718;-62
2023/04/11 16:16:45;;;;;;;;;;;;;;;16.76;50.43;96865.00;4229393;28;5890;-62
2023/04/11 16:18:48;;;;;;;;;;;;;;;16.76;50.35;96864.16;4224601;28;5688;-61
2023/04/11 16:20:51;;;;;;;;;;;;;;;16.73;50.32;96872.63;4224881;27;5692;-63
2023/04/11 16:22:53;;;;;;;;;;;;;;;16.72;50.09;96865.69;4227714;27;5114;-62
2023/04/11 16:24:58;;;;;;;;;;;;;;;16.70;50.17;96863.25;4221245;28;5803;-63
2023/04/11 16:27:01;;;;;;;;;;;;;;;16.70;50.25;96871.25;4229552;27;5880;-61
2023/04/11 16:29:04;;;;;;;;;;;;;;;16.68;50.16;96870.66;4220487;27;5821;-62
2023/04/11 16:31:08;;;;;;;;;;;;;;;16.69;50.13;96880.31;4225715;27;5787;-62
2023/04/11 16:33:11;;;;;;;;;;;;;;;16.69;50.28;96872.28;4221783;27;5796;-62
2023/04/11 16:35:14;;;;;;;;;;;;;;;16.65;50.26;96873.78;4226044;27;5834;-61
2023/04/11 16:37:17;;;;;;;;;;;;;;;16.65;50.04;96875.59;4230917;27;5775;-61
2023/04/11 16:39:20;;;;;;;;;;;;;;;16.60;50.09;96868.28;4231910;28;5920;-62
2023/04/11 16:41:24;;;;;;;;;;;;;;;16.53;50.07;96857.72;4231303;28;7403;-61
2023/04/11 16:43:27;;;;;;;;;;;;;;;16.49;50.35;96850.41;4223731;28;5681;-61
2023/04/11 16:45:32;;;;;;;;;;;;;;;16.45;50.36;96852.72;4227655;27;5710;-62
2023/04/11 16:47:35;;;;;;;;;;;;;;;16.46;50.20;96842.88;4221993;27;5907;-61
2023/04/11 16:49:38;;;;;;;;;;;;;;;16.47;50.15;96844.50;4225513;27;5903;-62
2023/04/11 16:51:41;;;;;;;;;;;;;;;16.42;50.22;96844.34;4221447;28;5693;-65
2023/04/11 16:53:44;;;;;;;;;;;;;;;16.30;50.13;96850.47;4228314;27;5079;-67
2023/04/11 16:55:47;;;;;;;;;;;;;;;16.27;50.32;96845.59;4228836;27;5863;-67
2023/04/11 16:57:51;;;;;;;;;;;;;;;16.25;50.24;96850.34;4222898;27;5744;-67
2023/04/11 16:59:54;;;;;;;;;;;;;;;16.25;50.21;96836.19;4224609;27;5680;-67
2023/04/11 17:01:57;;;;;;;;;;;;;;;16.22;50.31;96834.81;4220782;27;5704;-66